sensor_id;sensor_type;location;lat;lon;timestamp;temperature;humidity
80367;DHT22;70058;42.660;23.366;2023-05-10T00:00:58;9.70;83.90
80367;DHT22;70058;42.660;23.366;2023-05-10T00:03:24;9.70;84.10
80367;DHT22;70058;42.660;23.366;2023-05-10T00:05:49;9.60;85.10
80367;DHT22;70058;42.660;23.366;2023-05-10T00:08:15;9.80;86.10
80367;DHT22;70058;42.660;23.366;2023-05-10T00:10:44;9.80;85.60
80367;DHT22;70058;42.660;23.366;2023-05-10T00:13:10;9.80;85.40
80367;DHT22;70058;42.660;23.366;2023-05-10T00:15:36;9.90;86.30
80367;DHT22;70058;42.660;23.366;2023-05-10T00:18:01;9.80;86.10
80367;DHT22;70058;42.660;23.366;2023-05-10T00:20:27;9.80;85.90
80367;DHT22;70058;42.660;23.366;2023-05-10T00:22:53;9.90;86.50
80367;DHT22;70058;42.660;23.366;2023-05-10T00:25:18;9.50;84.60
80367;DHT22;70058;42.660;23.366;2023-05-10T00:27:45;9.70;87.40
80367;DHT22;70058;42.660;23.366;2023-05-10T00:30:11;9.60;84.50
80367;DHT22;70058;42.660;23.366;2023-05-10T00:32:37;9.50;86.40
80367;DHT22;70058;42.660;23.366;2023-05-10T00:35:02;9.60;87.20
80367;DHT22;70058;42.660;23.366;2023-05-10T00:37:29;9.60;84.90
80367;DHT22;70058;42.660;23.366;2023-05-10T00:39:55;9.60;86.40
80367;DHT22;70058;42.660;23.366;2023-05-10T00:42:20;9.60;85.60
80367;DHT22;70058;42.660;23.366;2023-05-10T00:44:46;9.80;85.20
80367;DHT22;70058;42.660;23.366;2023-05-10T00:47:12;9.80;85.10
80367;DHT22;70058;42.660;23.366;2023-05-10T00:49:38;9.70;84.60
80367;DHT22;70058;42.660;23.366;2023-05-10T00:52:04;9.60;84.10
80367;DHT22;70058;42.660;23.366;2023-05-10T00:54:30;9.70;85.50
80367;DHT22;70058;42.660;23.366;2023-05-10T00:56:55;9.50;85.30
80367;DHT22;70058;42.660;23.366;2023-05-10T00:59:22;9.50;85.70
80367;DHT22;70058;42.660;23.366;2023-05-10T01:01:48;9.40;84.50
80367;DHT22;70058;42.660;23.366;2023-05-10T01:04:15;9.40;84.20
80367;DHT22;70058;42.660;23.366;2023-05-10T01:06:41;9.50;85.20
80367;DHT22;70058;42.660;23.366;2023-05-10T01:09:06;9.60;85.50
80367;DHT22;70058;42.660;23.366;2023-05-10T01:11:37;9.60;83.40
80367;DHT22;70058;42.660;23.366;2023-05-10T01:14:03;9.50;82.90
80367;DHT22;70058;42.660;23.366;2023-05-10T01:16:32;9.20;84.50
80367;DHT22;70058;42.660;23.366;2023-05-10T01:18:58;9.30;85.90
80367;DHT22;70058;42.660;23.366;2023-05-10T01:21:49;9.30;84.10
80367;DHT22;70058;42.660;23.366;2023-05-10T01:24:40;9.50;84.00
80367;DHT22;70058;42.660;23.366;2023-05-10T01:29:57;9.60;84.70
80367;DHT22;70058;42.660;23.366;2023-05-10T01:33:07;9.70;83.90
80367;DHT22;70058;42.660;23.366;2023-05-10T01:35:51;9.70;84.60
80367;DHT22;70058;42.660;23.366;2023-05-10T01:38:53;9.60;82.20
80367;DHT22;70058;42.660;23.366;2023-05-10T01:46:48;9.40;80.90
80367;DHT22;70058;42.660;23.366;2023-05-10T01:49:24;9.10;83.50
80367;DHT22;70058;42.660;23.366;2023-05-10T01:51:53;8.90;83.20
80367;DHT22;70058;42.660;23.366;2023-05-10T01:54:21;8.80;84.30
80367;DHT22;70058;42.660;23.366;2023-05-10T01:56:56;8.70;83.90
80367;DHT22;70058;42.660;23.366;2023-05-10T01:59:28;8.90;85.40
80367;DHT22;70058;42.660;23.366;2023-05-10T02:01:58;8.90;85.30
80367;DHT22;70058;42.660;23.366;2023-05-10T02:04:24;9.10;86.00
80367;DHT22;70058;42.660;23.366;2023-05-10T02:06:52;9.10;84.40
80367;DHT22;70058;42.660;23.366;2023-05-10T02:09:20;8.90;84.10
80367;DHT22;70058;42.660;23.366;2023-05-10T02:11:48;8.70;84.00
80367;DHT22;70058;42.660;23.366;2023-05-10T02:14:15;8.70;84.70
80367;DHT22;70058;42.660;23.366;2023-05-10T02:16:42;8.90;85.30
80367;DHT22;70058;42.660;23.366;2023-05-10T02:19:09;8.90;83.10
80367;DHT22;70058;42.660;23.366;2023-05-10T02:21:38;8.80;83.20
80367;DHT22;70058;42.660;23.366;2023-05-10T02:24:05;8.70;84.90
80367;DHT22;70058;42.660;23.366;2023-05-10T02:26:32;8.50;84.00
80367;DHT22;70058;42.660;23.366;2023-05-10T02:29:04;8.40;82.10
80367;DHT22;70058;42.660;23.366;2023-05-10T02:31:32;8.00;83.60
80367;DHT22;70058;42.660;23.366;2023-05-10T02:33:59;8.00;85.30
80367;DHT22;70058;42.660;23.366;2023-05-10T02:36:26;8.10;85.20
80367;DHT22;70058;42.660;23.366;2023-05-10T02:38:53;8.30;85.90
80367;DHT22;70058;42.660;23.366;2023-05-10T02:41:20;8.30;83.80
80367;DHT22;70058;42.660;23.366;2023-05-10T02:43:50;8.00;82.00
80367;DHT22;70058;42.660;23.366;2023-05-10T02:46:16;7.90;82.40
80367;DHT22;70058;42.660;23.366;2023-05-10T02:48:41;7.90;83.40
80367;DHT22;70058;42.660;23.366;2023-05-10T02:51:08;7.80;80.50
80367;DHT22;70058;42.660;23.366;2023-05-10T02:53:36;7.90;82.60
80367;DHT22;70058;42.660;23.366;2023-05-10T02:56:13;7.80;81.10
80367;DHT22;70058;42.660;23.366;2023-05-10T02:58:39;7.70;81.90
80367;DHT22;70058;42.660;23.366;2023-05-10T03:01:05;7.70;81.80
80367;DHT22;70058;42.660;23.366;2023-05-10T03:03:33;7.70;80.20
80367;DHT22;70058;42.660;23.366;2023-05-10T03:05:58;7.70;83.60
80367;DHT22;70058;42.660;23.366;2023-05-10T03:08:24;7.60;81.90
80367;DHT22;70058;42.660;23.366;2023-05-10T03:11:09;7.50;81.00
80367;DHT22;70058;42.660;23.366;2023-05-10T03:13:55;7.70;81.40
80367;DHT22;70058;42.660;23.366;2023-05-10T03:16:27;7.90;80.00
80367;DHT22;70058;42.660;23.366;2023-05-10T03:18:56;7.80;81.50
80367;DHT22;70058;42.660;23.366;2023-05-10T03:21:28;8.00;79.10
80367;DHT22;70058;42.660;23.366;2023-05-10T03:24:21;8.00;81.10
80367;DHT22;70058;42.660;23.366;2023-05-10T03:26:49;7.90;79.60
80367;DHT22;70058;42.660;23.366;2023-05-10T03:29:16;8.10;80.80
80367;DHT22;70058;42.660;23.366;2023-05-10T03:31:42;8.20;78.90
80367;DHT22;70058;42.660;23.366;2023-05-10T03:34:08;8.20;78.00
80367;DHT22;70058;42.660;23.366;2023-05-10T03:36:34;8.50;78.50
80367;DHT22;70058;42.660;23.366;2023-05-10T03:38:59;8.30;74.80
80367;DHT22;70058;42.660;23.366;2023-05-10T03:41:25;8.20;76.30
80367;DHT22;70058;42.660;23.366;2023-05-10T03:43:51;8.30;76.60
80367;DHT22;70058;42.660;23.366;2023-05-10T03:46:17;8.30;77.80
80367;DHT22;70058;42.660;23.366;2023-05-10T03:48:43;8.10;76.20
80367;DHT22;70058;42.660;23.366;2023-05-10T03:51:08;8.30;77.90
80367;DHT22;70058;42.660;23.366;2023-05-10T03:53:34;8.40;77.60
80367;DHT22;70058;42.660;23.366;2023-05-10T03:56:00;8.10;76.00
80367;DHT22;70058;42.660;23.366;2023-05-10T03:58:25;8.10;77.80
80367;DHT22;70058;42.660;23.366;2023-05-10T04:00:52;8.20;75.90
80367;DHT22;70058;42.660;23.366;2023-05-10T04:03:17;8.20;74.80
80367;DHT22;70058;42.660;23.366;2023-05-10T04:05:43;8.00;75.20
80367;DHT22;70058;42.660;23.366;2023-05-10T04:08:09;8.20;77.50
80367;DHT22;70058;42.660;23.366;2023-05-10T04:10:35;8.10;74.50
80367;DHT22;70058;42.660;23.366;2023-05-10T04:15:41;8.40;76.90
80367;DHT22;70058;42.660;23.366;2023-05-10T04:18:08;8.40;77.40
80367;DHT22;70058;42.660;23.366;2023-05-10T04:20:34;8.60;76.30
80367;DHT22;70058;42.660;23.366;2023-05-10T04:23:00;8.70;75.90
80367;DHT22;70058;42.660;23.366;2023-05-10T04:25:27;8.80;75.50
80367;DHT22;70058;42.660;23.366;2023-05-10T04:27:53;8.60;73.70
80367;DHT22;70058;42.660;23.366;2023-05-10T04:30:19;8.50;76.30
80367;DHT22;70058;42.660;23.366;2023-05-10T04:32:45;8.40;74.20
80367;DHT22;70058;42.660;23.366;2023-05-10T04:35:11;8.40;75.10
80367;DHT22;70058;42.660;23.366;2023-05-10T04:37:37;8.40;76.50
80367;DHT22;70058;42.660;23.366;2023-05-10T04:40:03;8.60;75.60
80367;DHT22;70058;42.660;23.366;2023-05-10T04:42:29;8.70;75.50
80367;DHT22;70058;42.660;23.366;2023-05-10T04:44:55;8.90;74.50
80367;DHT22;70058;42.660;23.366;2023-05-10T04:47:20;8.90;71.80
80367;DHT22;70058;42.660;23.366;2023-05-10T04:49:46;9.00;73.30
80367;DHT22;70058;42.660;23.366;2023-05-10T04:52:12;8.90;72.20
80367;DHT22;70058;42.660;23.366;2023-05-10T04:54:37;8.90;72.70
80367;DHT22;70058;42.660;23.366;2023-05-10T04:57:03;8.80;73.70
80367;DHT22;70058;42.660;23.366;2023-05-10T04:59:29;8.70;73.70
80367;DHT22;70058;42.660;23.366;2023-05-10T05:01:55;8.90;75.00
80367;DHT22;70058;42.660;23.366;2023-05-10T05:04:20;8.80;72.40
80367;DHT22;70058;42.660;23.366;2023-05-10T05:06:48;8.80;72.80
80367;DHT22;70058;42.660;23.366;2023-05-10T05:09:14;8.90;72.50
80367;DHT22;70058;42.660;23.366;2023-05-10T05:11:40;8.80;72.90
80367;DHT22;70058;42.660;23.366;2023-05-10T05:14:07;8.70;71.60
80367;DHT22;70058;42.660;23.366;2023-05-10T05:16:33;8.50;73.80
80367;DHT22;70058;42.660;23.366;2023-05-10T05:19:04;8.70;75.80
80367;DHT22;70058;42.660;23.366;2023-05-10T05:21:29;9.00;75.10
80367;DHT22;70058;42.660;23.366;2023-05-10T05:24:00;9.00;72.40
80367;DHT22;70058;42.660;23.366;2023-05-10T05:26:26;9.20;74.10
80367;DHT22;70058;42.660;23.366;2023-05-10T05:28:52;9.40;74.80
80367;DHT22;70058;42.660;23.366;2023-05-10T05:31:20;9.60;74.00
80367;DHT22;70058;42.660;23.366;2023-05-10T05:33:46;8.90;73.70
80367;DHT22;70058;42.660;23.366;2023-05-10T05:36:12;8.90;74.10
80367;DHT22;70058;42.660;23.366;2023-05-10T05:38:37;9.10;76.50
80367;DHT22;70058;42.660;23.366;2023-05-10T05:41:03;9.00;75.60
80367;DHT22;70058;42.660;23.366;2023-05-10T05:43:29;9.10;73.70
80367;DHT22;70058;42.660;23.366;2023-05-10T05:45:55;9.00;72.70
80367;DHT22;70058;42.660;23.366;2023-05-10T05:48:23;8.90;72.40
80367;DHT22;70058;42.660;23.366;2023-05-10T05:50:49;8.90;75.20
80367;DHT22;70058;42.660;23.366;2023-05-10T05:53:15;8.90;74.50
80367;DHT22;70058;42.660;23.366;2023-05-10T05:55:54;8.90;73.40
80367;DHT22;70058;42.660;23.366;2023-05-10T05:58:21;8.70;74.60
80367;DHT22;70058;42.660;23.366;2023-05-10T06:00:50;8.90;76.60
80367;DHT22;70058;42.660;23.366;2023-05-10T06:03:18;9.00;73.50
80367;DHT22;70058;42.660;23.366;2023-05-10T06:05:43;9.10;73.50
80367;DHT22;70058;42.660;23.366;2023-05-10T06:08:11;9.30;74.30
80367;DHT22;70058;42.660;23.366;2023-05-10T06:10:44;9.30;72.00
80367;DHT22;70058;42.660;23.366;2023-05-10T06:13:13;9.60;73.70
80367;DHT22;70058;42.660;23.366;2023-05-10T06:15:38;9.60;73.50
80367;DHT22;70058;42.660;23.366;2023-05-10T06:18:04;9.50;72.60
80367;DHT22;70058;42.660;23.366;2023-05-10T06:20:30;9.30;72.70
80367;DHT22;70058;42.660;23.366;2023-05-10T06:22:57;9.30;75.30
80367;DHT22;70058;42.660;23.366;2023-05-10T06:25:23;9.40;75.10
80367;DHT22;70058;42.660;23.366;2023-05-10T06:27:49;9.30;73.20
80367;DHT22;70058;42.660;23.366;2023-05-10T06:30:15;9.60;74.50
80367;DHT22;70058;42.660;23.366;2023-05-10T06:32:41;9.60;73.20
80367;DHT22;70058;42.660;23.366;2023-05-10T06:35:09;9.80;73.40
80367;DHT22;70058;42.660;23.366;2023-05-10T06:37:35;9.60;72.10
80367;DHT22;70058;42.660;23.366;2023-05-10T06:40:01;9.70;71.30
80367;DHT22;70058;42.660;23.366;2023-05-10T06:42:28;9.80;70.60
80367;DHT22;70058;42.660;23.366;2023-05-10T06:44:54;9.30;69.80
80367;DHT22;70058;42.660;23.366;2023-05-10T06:47:19;9.00;71.70
80367;DHT22;70058;42.660;23.366;2023-05-10T06:49:51;9.10;73.50
80367;DHT22;70058;42.660;23.366;2023-05-10T06:52:20;9.40;72.10
80367;DHT22;70058;42.660;23.366;2023-05-10T06:54:46;9.60;71.20
80367;DHT22;70058;42.660;23.366;2023-05-10T06:57:11;9.70;71.10
80367;DHT22;70058;42.660;23.366;2023-05-10T06:59:40;9.90;70.70
80367;DHT22;70058;42.660;23.366;2023-05-10T07:02:18;9.70;67.70
80367;DHT22;70058;42.660;23.366;2023-05-10T07:04:44;9.60;68.80
80367;DHT22;70058;42.660;23.366;2023-05-10T07:07:16;9.50;69.90
80367;DHT22;70058;42.660;23.366;2023-05-10T07:09:43;9.00;69.40
80367;DHT22;70058;42.660;23.366;2023-05-10T07:12:12;8.90;70.30
80367;DHT22;70058;42.660;23.366;2023-05-10T07:14:38;9.20;71.00
80367;DHT22;70058;42.660;23.366;2023-05-10T07:17:04;9.50;70.90
80367;DHT22;70058;42.660;23.366;2023-05-10T07:19:30;9.50;69.30
80367;DHT22;70058;42.660;23.366;2023-05-10T07:21:58;9.70;70.80
80367;DHT22;70058;42.660;23.366;2023-05-10T07:24:24;10.00;70.60
80367;DHT22;70058;42.660;23.366;2023-05-10T07:26:50;10.30;69.00
80367;DHT22;70058;42.660;23.366;2023-05-10T07:29:15;10.20;68.30
80367;DHT22;70058;42.660;23.366;2023-05-10T07:31:41;9.90;67.60
80367;DHT22;70058;42.660;23.366;2023-05-10T07:34:08;9.80;69.60
80367;DHT22;70058;42.660;23.366;2023-05-10T07:36:35;9.90;69.00
80367;DHT22;70058;42.660;23.366;2023-05-10T07:39:01;9.80;68.30
80367;DHT22;70058;42.660;23.366;2023-05-10T07:41:26;9.70;70.00
80367;DHT22;70058;42.660;23.366;2023-05-10T07:43:53;10.00;67.90
80367;DHT22;70058;42.660;23.366;2023-05-10T07:46:18;10.20;66.50
80367;DHT22;70058;42.660;23.366;2023-05-10T07:48:45;9.90;68.90
80367;DHT22;70058;42.660;23.366;2023-05-10T07:51:21;9.90;68.80
80367;DHT22;70058;42.660;23.366;2023-05-10T07:57:07;10.40;67.50
80367;DHT22;70058;42.660;23.366;2023-05-10T07:59:33;10.40;65.90
80367;DHT22;70058;42.660;23.366;2023-05-10T08:01:59;10.30;65.50
80367;DHT22;70058;42.660;23.366;2023-05-10T08:04:26;10.30;65.10
80367;DHT22;70058;42.660;23.366;2023-05-10T08:06:51;10.40;64.90
80367;DHT22;70058;42.660;23.366;2023-05-10T08:09:17;10.80;64.40
80367;DHT22;70058;42.660;23.366;2023-05-10T08:11:43;10.30;63.20
80367;DHT22;70058;42.660;23.366;2023-05-10T08:14:09;10.30;64.10
80367;DHT22;70058;42.660;23.366;2023-05-10T08:16:38;10.30;65.50
80367;DHT22;70058;42.660;23.366;2023-05-10T08:19:03;10.90;63.60
80367;DHT22;70058;42.660;23.366;2023-05-10T08:21:32;10.10;64.20
80367;DHT22;70058;42.660;23.366;2023-05-10T08:23:58;10.30;64.50
80367;DHT22;70058;42.660;23.366;2023-05-10T08:26:23;10.50;64.00
80367;DHT22;70058;42.660;23.366;2023-05-10T08:28:51;10.20;64.90
80367;DHT22;70058;42.660;23.366;2023-05-10T08:31:17;10.00;66.50
80367;DHT22;70058;42.660;23.366;2023-05-10T08:33:43;10.00;71.60
80367;DHT22;70058;42.660;23.366;2023-05-10T08:36:09;9.80;69.80
80367;DHT22;70058;42.660;23.366;2023-05-10T08:38:34;10.10;71.50
80367;DHT22;70058;42.660;23.366;2023-05-10T08:41:02;10.20;67.80
80367;DHT22;70058;42.660;23.366;2023-05-10T08:43:28;10.10;69.70
80367;DHT22;70058;42.660;23.366;2023-05-10T08:45:55;10.40;69.50
80367;DHT22;70058;42.660;23.366;2023-05-10T08:48:24;10.20;69.00
80367;DHT22;70058;42.660;23.366;2023-05-10T08:50:53;10.10;70.60
80367;DHT22;70058;42.660;23.366;2023-05-10T08:53:33;10.20;68.10
80367;DHT22;70058;42.660;23.366;2023-05-10T08:56:07;10.00;67.10
80367;DHT22;70058;42.660;23.366;2023-05-10T08:58:33;10.40;68.50
80367;DHT22;70058;42.660;23.366;2023-05-10T09:01:00;10.40;67.20
80367;DHT22;70058;42.660;23.366;2023-05-10T09:03:26;10.50;66.70
80367;DHT22;70058;42.660;23.366;2023-05-10T09:05:55;10.70;66.70
80367;DHT22;70058;42.660;23.366;2023-05-10T09:08:32;10.60;66.50
80367;DHT22;70058;42.660;23.366;2023-05-10T09:11:00;10.20;65.70
80367;DHT22;70058;42.660;23.366;2023-05-10T09:13:27;10.20;69.40
80367;DHT22;70058;42.660;23.366;2023-05-10T09:15:55;10.40;68.50
80367;DHT22;70058;42.660;23.366;2023-05-10T09:18:21;11.00;67.30
80367;DHT22;70058;42.660;23.366;2023-05-10T09:20:53;11.40;65.20
80367;DHT22;70058;42.660;23.366;2023-05-10T09:23:19;10.60;64.20
80367;DHT22;70058;42.660;23.366;2023-05-10T09:25:45;10.50;66.30
80367;DHT22;70058;42.660;23.366;2023-05-10T09:28:18;10.50;64.70
80367;DHT22;70058;42.660;23.366;2023-05-10T09:31:07;10.30;65.00
80367;DHT22;70058;42.660;23.366;2023-05-10T09:33:44;10.20;66.40
80367;DHT22;70058;42.660;23.366;2023-05-10T09:36:17;10.20;65.70
80367;DHT22;70058;42.660;23.366;2023-05-10T09:41:22;9.90;66.10
80367;DHT22;70058;42.660;23.366;2023-05-10T09:43:55;10.10;66.50
80367;DHT22;70058;42.660;23.366;2023-05-10T09:46:24;10.20;66.10
80367;DHT22;70058;42.660;23.366;2023-05-10T09:48:53;10.30;65.70
80367;DHT22;70058;42.660;23.366;2023-05-10T09:51:23;10.40;65.30
80367;DHT22;70058;42.660;23.366;2023-05-10T09:54:15;10.40;65.00
80367;DHT22;70058;42.660;23.366;2023-05-10T09:56:42;10.50;66.00
80367;DHT22;70058;42.660;23.366;2023-05-10T09:59:13;10.50;65.90
80367;DHT22;70058;42.660;23.366;2023-05-10T10:01:39;10.50;65.60
80367;DHT22;70058;42.660;23.366;2023-05-10T10:15:04;11.10;62.70
80367;DHT22;70058;42.660;23.366;2023-05-10T10:17:38;11.30;63.80
80367;DHT22;70058;42.660;23.366;2023-05-10T10:20:10;11.00;62.50
80367;DHT22;70058;42.660;23.366;2023-05-10T10:22:39;11.40;62.90
80367;DHT22;70058;42.660;23.366;2023-05-10T10:25:08;11.40;62.50
80367;DHT22;70058;42.660;23.366;2023-05-10T10:27:59;11.80;62.80
80367;DHT22;70058;42.660;23.366;2023-05-10T10:30:54;12.10;59.80
80367;DHT22;70058;42.660;23.366;2023-05-10T10:34:20;12.40;60.20
80367;DHT22;70058;42.660;23.366;2023-05-10T10:36:47;12.10;58.90
80367;DHT22;70058;42.660;23.366;2023-05-10T10:39:14;12.00;61.40
80367;DHT22;70058;42.660;23.366;2023-05-10T10:41:58;12.80;60.50
80367;DHT22;70058;42.660;23.366;2023-05-10T10:49:32;13.00;57.20
80367;DHT22;70058;42.660;23.366;2023-05-10T10:52:36;13.10;56.80
80367;DHT22;70058;42.660;23.366;2023-05-10T10:55:41;12.80;57.90
80367;DHT22;70058;42.660;23.366;2023-05-10T10:58:00;12.70;58.30
80367;DHT22;70058;42.660;23.366;2023-05-10T11:00:36;12.60;58.30
80367;DHT22;70058;42.660;23.366;2023-05-10T11:03:09;13.00;58.20
80367;DHT22;70058;42.660;23.366;2023-05-10T11:05:49;12.70;56.60
80367;DHT22;70058;42.660;23.366;2023-05-10T11:08:40;13.10;56.20
80367;DHT22;70058;42.660;23.366;2023-05-10T11:11:06;12.50;56.90
80367;DHT22;70058;42.660;23.366;2023-05-10T11:13:39;12.60;57.90
80367;DHT22;70058;42.660;23.366;2023-05-10T11:18:51;13.40;55.20
80367;DHT22;70058;42.660;23.366;2023-05-10T11:21:21;12.80;56.90
80367;DHT22;70058;42.660;23.366;2023-05-10T11:23:48;12.70;57.20
80367;DHT22;70058;42.660;23.366;2023-05-10T11:26:14;12.70;57.60
80367;DHT22;70058;42.660;23.366;2023-05-10T11:28:44;12.30;57.70
80367;DHT22;70058;42.660;23.366;2023-05-10T11:31:16;12.90;57.80
80367;DHT22;70058;42.660;23.366;2023-05-10T11:33:53;12.50;57.50
80367;DHT22;70058;42.660;23.366;2023-05-10T11:36:43;12.50;58.50
80367;DHT22;70058;42.660;23.366;2023-05-10T11:39:20;12.70;61.70
80367;DHT22;70058;42.660;23.366;2023-05-10T11:41:48;12.70;58.10
80367;DHT22;70058;42.660;23.366;2023-05-10T11:44:15;13.10;61.20
80367;DHT22;70058;42.660;23.366;2023-05-10T11:46:41;13.00;58.50
80367;DHT22;70058;42.660;23.366;2023-05-10T11:49:10;13.10;59.40
80367;DHT22;70058;42.660;23.366;2023-05-10T11:51:36;13.50;57.50
80367;DHT22;70058;42.660;23.366;2023-05-10T11:54:07;13.60;58.10
80367;DHT22;70058;42.660;23.366;2023-05-10T11:56:34;13.70;55.90
80367;DHT22;70058;42.660;23.366;2023-05-10T11:59:00;13.50;56.30
80367;DHT22;70058;42.660;23.366;2023-05-10T12:01:35;13.30;56.40
80367;DHT22;70058;42.660;23.366;2023-05-10T12:04:01;13.10;57.10
80367;DHT22;70058;42.660;23.366;2023-05-10T12:06:32;12.90;59.50
80367;DHT22;70058;42.660;23.366;2023-05-10T12:09:06;13.40;58.20
80367;DHT22;70058;42.660;23.366;2023-05-10T12:11:38;13.70;57.60
80367;DHT22;70058;42.660;23.366;2023-05-10T12:14:24;13.60;57.60
80367;DHT22;70058;42.660;23.366;2023-05-10T12:16:56;13.80;55.90
80367;DHT22;70058;42.660;23.366;2023-05-10T12:19:25;13.80;56.60
80367;DHT22;70058;42.660;23.366;2023-05-10T12:21:54;13.60;56.30
80367;DHT22;70058;42.660;23.366;2023-05-10T12:24:24;13.60;56.50
80367;DHT22;70058;42.660;23.366;2023-05-10T12:26:50;13.70;56.00
80367;DHT22;70058;42.660;23.366;2023-05-10T12:29:18;13.40;56.70
80367;DHT22;70058;42.660;23.366;2023-05-10T12:31:53;13.30;57.20
80367;DHT22;70058;42.660;23.366;2023-05-10T12:34:35;13.40;56.60
80367;DHT22;70058;42.660;23.366;2023-05-10T12:37:04;13.10;57.00
80367;DHT22;70058;42.660;23.366;2023-05-10T12:39:43;12.90;57.50
80367;DHT22;70058;42.660;23.366;2023-05-10T12:42:10;13.00;58.00
80367;DHT22;70058;42.660;23.366;2023-05-10T12:44:36;13.50;56.70
80367;DHT22;70058;42.660;23.366;2023-05-10T12:47:10;13.60;56.10
80367;DHT22;70058;42.660;23.366;2023-05-10T12:49:36;13.60;55.80
80367;DHT22;70058;42.660;23.366;2023-05-10T12:52:02;13.80;56.20
80367;DHT22;70058;42.660;23.366;2023-05-10T12:54:28;14.20;54.80
80367;DHT22;70058;42.660;23.366;2023-05-10T12:56:55;14.20;54.10
80367;DHT22;70058;42.660;23.366;2023-05-10T12:59:21;13.90;54.30
80367;DHT22;70058;42.660;23.366;2023-05-10T13:01:48;14.00;55.80
80367;DHT22;70058;42.660;23.366;2023-05-10T13:04:17;14.10;54.70
80367;DHT22;70058;42.660;23.366;2023-05-10T13:06:47;14.20;54.00
80367;DHT22;70058;42.660;23.366;2023-05-10T13:09:18;14.60;53.50
80367;DHT22;70058;42.660;23.366;2023-05-10T13:12:18;14.20;53.80
80367;DHT22;70058;42.660;23.366;2023-05-10T13:14:45;14.10;54.00
80367;DHT22;70058;42.660;23.366;2023-05-10T13:17:13;13.70;54.80
80367;DHT22;70058;42.660;23.366;2023-05-10T13:19:39;13.60;56.10
80367;DHT22;70058;42.660;23.366;2023-05-10T13:22:06;13.00;56.50
80367;DHT22;70058;42.660;23.366;2023-05-10T13:24:32;12.90;57.90
80367;DHT22;70058;42.660;23.366;2023-05-10T13:26:58;13.00;57.40
80367;DHT22;70058;42.660;23.366;2023-05-10T13:29:35;12.70;58.10
80367;DHT22;70058;42.660;23.366;2023-05-10T13:32:01;12.40;59.30
80367;DHT22;70058;42.660;23.366;2023-05-10T13:34:27;12.40;59.00
80367;DHT22;70058;42.660;23.366;2023-05-10T13:36:53;12.40;60.00
80367;DHT22;70058;42.660;23.366;2023-05-10T13:39:20;12.70;59.00
80367;DHT22;70058;42.660;23.366;2023-05-10T13:41:53;12.40;58.80
80367;DHT22;70058;42.660;23.366;2023-05-10T13:44:25;12.20;60.10
80367;DHT22;70058;42.660;23.366;2023-05-10T13:46:51;12.10;60.80
80367;DHT22;70058;42.660;23.366;2023-05-10T13:49:17;12.00;60.40
80367;DHT22;70058;42.660;23.366;2023-05-10T13:51:43;12.00;60.30
80367;DHT22;70058;42.660;23.366;2023-05-10T13:54:15;12.50;59.30
80367;DHT22;70058;42.660;23.366;2023-05-10T13:56:42;12.50;59.70
80367;DHT22;70058;42.660;23.366;2023-05-10T13:59:09;12.50;58.80
80367;DHT22;70058;42.660;23.366;2023-05-10T14:01:38;12.50;59.20
80367;DHT22;70058;42.660;23.366;2023-05-10T14:04:04;12.20;60.60
80367;DHT22;70058;42.660;23.366;2023-05-10T14:06:29;12.10;60.60
80367;DHT22;70058;42.660;23.366;2023-05-10T14:08:56;12.00;61.20
80367;DHT22;70058;42.660;23.366;2023-05-10T14:11:22;12.20;60.20
80367;DHT22;70058;42.660;23.366;2023-05-10T14:13:52;12.20;59.90
80367;DHT22;70058;42.660;23.366;2023-05-10T14:16:18;12.10;60.00
80367;DHT22;70058;42.660;23.366;2023-05-10T14:18:44;11.90;60.80
80367;DHT22;70058;42.660;23.366;2023-05-10T14:21:10;11.90;61.10
80367;DHT22;70058;42.660;23.366;2023-05-10T14:23:40;11.90;61.30
80367;DHT22;70058;42.660;23.366;2023-05-10T14:26:06;11.70;61.40
80367;DHT22;70058;42.660;23.366;2023-05-10T14:28:37;11.70;61.70
80367;DHT22;70058;42.660;23.366;2023-05-10T14:31:03;11.60;61.60
80367;DHT22;70058;42.660;23.366;2023-05-10T14:33:28;11.70;62.10
80367;DHT22;70058;42.660;23.366;2023-05-10T14:35:54;11.90;61.60
80367;DHT22;70058;42.660;23.366;2023-05-10T14:38:22;11.80;61.40
80367;DHT22;70058;42.660;23.366;2023-05-10T14:40:49;11.70;61.80
80367;DHT22;70058;42.660;23.366;2023-05-10T14:43:15;11.70;61.60
80367;DHT22;70058;42.660;23.366;2023-05-10T14:45:40;11.90;61.90
80367;DHT22;70058;42.660;23.366;2023-05-10T14:48:07;12.20;61.30
80367;DHT22;70058;42.660;23.366;2023-05-10T14:50:36;11.90;61.10
80367;DHT22;70058;42.660;23.366;2023-05-10T14:53:36;12.00;61.20
80367;DHT22;70058;42.660;23.366;2023-05-10T14:56:02;11.90;61.70
80367;DHT22;70058;42.660;23.366;2023-05-10T14:58:28;12.00;61.40
80367;DHT22;70058;42.660;23.366;2023-05-10T15:00:54;12.00;61.90
80367;DHT22;70058;42.660;23.366;2023-05-10T15:03:19;12.00;61.40
80367;DHT22;70058;42.660;23.366;2023-05-10T15:05:46;11.80;61.00
80367;DHT22;70058;42.660;23.366;2023-05-10T15:08:12;11.90;61.10
80367;DHT22;70058;42.660;23.366;2023-05-10T15:10:38;12.20;60.70
80367;DHT22;70058;42.660;23.366;2023-05-10T15:13:04;12.20;60.70
80367;DHT22;70058;42.660;23.366;2023-05-10T15:15:30;11.90;60.80
80367;DHT22;70058;42.660;23.366;2023-05-10T15:17:56;11.90;61.50
80367;DHT22;70058;42.660;23.366;2023-05-10T15:20:22;12.00;61.20
80367;DHT22;70058;42.660;23.366;2023-05-10T15:22:48;12.00;61.60
80367;DHT22;70058;42.660;23.366;2023-05-10T15:25:13;12.00;60.70
80367;DHT22;70058;42.660;23.366;2023-05-10T15:27:45;12.00;61.80
80367;DHT22;70058;42.660;23.366;2023-05-10T15:30:11;11.80;61.40
80367;DHT22;70058;42.660;23.366;2023-05-10T15:32:36;11.90;61.80
80367;DHT22;70058;42.660;23.366;2023-05-10T15:35:04;12.10;61.60
80367;DHT22;70058;42.660;23.366;2023-05-10T15:37:29;12.10;60.10
80367;DHT22;70058;42.660;23.366;2023-05-10T15:39:55;12.00;60.30
80367;DHT22;70058;42.660;23.366;2023-05-10T15:42:27;11.80;60.90
80367;DHT22;70058;42.660;23.366;2023-05-10T15:44:53;11.70;61.40
80367;DHT22;70058;42.660;23.366;2023-05-10T15:47:22;11.40;61.80
80367;DHT22;70058;42.660;23.366;2023-05-10T15:49:48;11.50;62.10
80367;DHT22;70058;42.660;23.366;2023-05-10T15:52:14;11.60;62.10
80367;DHT22;70058;42.660;23.366;2023-05-10T15:54:41;11.50;62.10
80367;DHT22;70058;42.660;23.366;2023-05-10T15:57:06;11.60;62.30
80367;DHT22;70058;42.660;23.366;2023-05-10T15:59:35;11.60;61.70
80367;DHT22;70058;42.660;23.366;2023-05-10T16:02:02;11.40;62.00
80367;DHT22;70058;42.660;23.366;2023-05-10T16:04:29;11.30;62.40
80367;DHT22;70058;42.660;23.366;2023-05-10T16:06:54;11.20;62.40
80367;DHT22;70058;42.660;23.366;2023-05-10T16:09:20;11.30;62.60